createdAt,value
2019-04-20T00:00:49.146Z,35.92
2019-04-20T00:03:12.172Z,36.04
2019-04-20T00:05:39.192Z,36.47
2019-04-20T00:08:08.912Z,36.55
2019-04-20T00:10:42.510Z,36.27
2019-04-20T00:13:17.628Z,36.40
2019-04-20T00:15:32.122Z,36.71
2019-04-20T00:18:03.083Z,36.98
2019-04-20T00:20:32.028Z,36.84
2019-04-20T00:22:57.887Z,36.62
2019-04-20T00:25:38.599Z,37.29
2019-04-20T00:28:11.973Z,37.22
2019-04-20T00:30:45.096Z,37.16
2019-04-20T00:32:58.572Z,37.33
2019-04-20T00:35:18.851Z,37.17
2019-04-20T00:37:46.456Z,37.41
2019-04-20T00:40:13.412Z,37.70
2019-04-20T00:42:45.765Z,37.60
2019-04-20T00:45:16.217Z,37.75
2019-04-20T00:47:47.709Z,37.44
2019-04-20T00:50:25.868Z,37.48
2019-04-20T00:52:51.432Z,37.42
2019-04-20T00:55:02.369Z,37.48
2019-04-20T00:57:41.395Z,37.74
2019-04-20T01:00:19.190Z,37.78
2019-04-20T01:02:40.664Z,38.00
2019-04-20T01:05:15.197Z,37.96
2019-04-20T01:07:32.867Z,38.17
2019-04-20T01:09:52.233Z,38.11
2019-04-20T01:12:24.234Z,38.31
2019-04-20T01:14:55.150Z,38.53
2019-04-20T01:17:15.444Z,38.39
2019-04-20T01:19:42.061Z,39.37
2019-04-20T01:22:14.744Z,38.64
2019-04-20T01:24:40.499Z,38.54
2019-04-20T01:27:10.928Z,38.50
2019-04-20T01:29:42.628Z,38.60
2019-04-20T01:32:10.462Z,39.37
2019-04-20T01:34:41.723Z,39.39
2019-04-20T01:37:14.679Z,39.15
2019-04-20T01:39:35.334Z,39.00
2019-04-20T01:41:56.133Z,38.96
2019-04-20T01:44:26.161Z,38.89
2019-04-20T01:46:55.230Z,39.22
2019-04-20T01:49:23.840Z,39.38
2019-04-20T01:51:57.686Z,39.40
2019-04-20T01:54:34.041Z,39.45
2019-04-20T01:56:57.027Z,39.25
2019-04-20T01:59:22.992Z,39.54
2019-04-20T02:01:42.815Z,39.67
2019-04-20T02:04:15.792Z,39.45
2019-04-20T02:06:43.416Z,39.59
2019-04-20T02:09:11.986Z,39.48
2019-04-20T02:11:39.343Z,39.68
2019-04-20T02:14:06.956Z,39.51
2019-04-20T02:16:38.284Z,40.24
2019-04-20T02:19:16.018Z,40.51
2019-04-20T02:21:48.505Z,40.39
2019-04-20T02:24:01.268Z,40.33
2019-04-20T02:26:26.075Z,40.91
2019-04-20T02:29:20.255Z,40.94
2019-04-20T02:32:06.648Z,40.88
2019-04-20T02:34:26.085Z,40.88
2019-04-20T02:39:30.875Z,42.08
2019-04-20T02:41:54.285Z,41.35
2019-04-20T02:44:27.118Z,41.78
2019-04-20T02:46:51.053Z,42.43
2019-04-20T02:49:26.118Z,42.48
2019-04-20T02:56:39.401Z,41.72
2019-04-20T02:59:31.545Z,42.39
2019-04-20T03:01:25.295Z,42.12
2019-04-20T03:03:38.609Z,42.28
2019-04-20T03:06:13.393Z,42.01
2019-04-20T03:08:53.242Z,41.91
2019-04-20T03:11:22.455Z,42.18
2019-04-20T03:13:44.139Z,43.17
2019-04-20T03:16:14.421Z,43.30
2019-04-20T03:18:39.871Z,42.62
2019-04-20T03:21:12.830Z,42.87
2019-04-20T03:23:42.822Z,43.24
2019-04-20T03:26:06.453Z,43.97
2019-04-20T03:28:32.865Z,44.38
2019-04-20T03:36:16.244Z,43.51
2019-04-20T03:38:30.203Z,43.16
2019-04-20T03:40:48.335Z,43.04
2019-04-20T03:43:03.861Z,43.28
2019-04-20T03:45:37.435Z,43.26
2019-04-20T03:48:11.572Z,43.35
2019-04-20T03:50:46.740Z,43.83
2019-04-20T03:53:19.916Z,43.37
2019-04-20T03:55:39.686Z,43.10
2019-04-20T03:58:14.299Z,42.98
2019-04-20T04:00:36.500Z,42.65
2019-04-20T04:03:21.695Z,42.67
2019-04-20T04:05:40.098Z,42.47
2019-04-20T04:08:02.295Z,42.52
2019-04-20T04:10:29.230Z,42.44
2019-04-20T04:12:46.769Z,43.01
2019-04-20T04:15:12.707Z,42.51
2019-04-20T04:17:43.217Z,42.48
2019-04-20T04:20:13.098Z,42.53
2019-04-20T04:22:50.030Z,42.55
2019-04-20T04:25:18.467Z,42.23
2019-04-20T04:27:52.970Z,42.46
2019-04-20T04:30:14.198Z,42.79
2019-04-20T04:33:10.912Z,42.56
2019-04-20T04:35:09.203Z,42.32
2019-04-20T04:37:45.917Z,42.30
2019-04-20T04:40:26.449Z,42.39
2019-04-20T04:42:48.187Z,42.21
2019-04-20T04:45:00.590Z,42.28
2019-04-20T04:47:20.199Z,42.19
2019-04-20T04:49:55.225Z,42.49
2019-04-20T04:52:19.165Z,42.81
2019-04-20T04:54:52.741Z,42.88
2019-04-20T04:57:11.718Z,44.19
2019-04-20T04:59:38.510Z,42.72
2019-04-20T05:02:05.392Z,42.36
2019-04-20T05:04:59.986Z,42.40
2019-04-20T05:07:11.495Z,42.31
2019-04-20T05:09:29.618Z,42.42
2019-04-20T05:12:03.969Z,42.24
2019-04-20T05:14:39.787Z,42.18
2019-04-20T05:17:07.681Z,41.92
2019-04-20T05:19:41.643Z,42.10
2019-04-20T05:22:16.023Z,41.90
2019-04-20T05:24:37.287Z,42.04
2019-04-20T05:27:11.659Z,42.40
2019-04-20T05:29:19.421Z,43.86
2019-04-20T05:31:50.328Z,43.46
2019-04-20T05:34:30.922Z,43.14
2019-04-20T05:36:57.971Z,43.43
2019-04-20T05:39:32.671Z,42.79
2019-04-20T05:41:51.736Z,42.49
2019-04-20T05:44:19.593Z,43.25
2019-04-20T05:46:59.975Z,42.35
2019-04-20T05:49:23.100Z,42.17
2019-04-20T05:51:48.677Z,41.67
2019-04-20T05:54:21.005Z,41.70
2019-04-20T05:56:46.237Z,41.89
2019-04-20T05:59:15.008Z,41.55
2019-04-20T06:01:49.932Z,41.72
2019-04-20T06:04:05.455Z,41.06
2019-04-20T06:06:45.108Z,41.52
2019-04-20T06:09:12.037Z,41.53
2019-04-20T06:11:44.479Z,41.67
2019-04-20T06:13:56.917Z,41.41
2019-04-20T06:16:42.644Z,41.50
2019-04-20T06:19:18.780Z,41.28
2019-04-20T06:21:37.991Z,41.42
2019-04-20T06:24:05.046Z,41.04
2019-04-20T06:26:44.128Z,40.83
2019-04-20T06:28:48.920Z,40.33
2019-04-20T06:31:26.721Z,40.22
2019-04-20T06:34:08.926Z,40.71
2019-04-20T06:36:29.195Z,40.12
2019-04-20T06:38:55.773Z,39.81
2019-04-20T06:41:26.513Z,39.71
2019-04-20T06:43:55.999Z,39.71
2019-04-20T06:46:20.235Z,39.59
2019-04-20T06:48:49.974Z,39.06
2019-04-20T06:51:10.798Z,39.21
2019-04-20T06:53:45.046Z,38.73
2019-04-20T06:56:13.926Z,38.52
2019-04-20T06:58:43.714Z,38.54
2019-04-20T07:01:05.680Z,38.24
2019-04-20T07:03:42.139Z,37.74
2019-04-20T07:06:06.403Z,37.36
2019-04-20T07:11:05.896Z,36.99
2019-04-20T07:13:19.294Z,36.67
2019-04-20T07:15:46.513Z,36.70
2019-04-20T07:18:26.184Z,36.33
2019-04-20T07:20:55.394Z,35.44
2019-04-20T07:25:48.840Z,35.31
2019-04-20T07:28:24.138Z,35.25
2019-04-20T07:30:46.545Z,35.17
2019-04-20T07:33:19.972Z,34.76
2019-04-20T07:35:40.450Z,34.17
2019-04-20T07:38:23.383Z,34.42
2019-04-20T07:40:35.976Z,34.02
2019-04-20T07:43:02.791Z,33.54
2019-04-20T07:48:09.328Z,33.44
2019-04-20T07:50:26.677Z,32.97
2019-04-20T07:52:51.691Z,32.77
2019-04-20T07:57:52.593Z,31.89
2019-04-20T08:00:26.345Z,32.23
2019-04-20T08:02:57.255Z,30.95
2019-04-20T08:05:15.415Z,31.73
2019-04-20T08:07:46.285Z,30.01
2019-04-20T08:10:09.991Z,30.86
2019-04-20T08:13:00.772Z,30.05
2019-04-20T08:15:39.170Z,30.14
2019-04-20T08:17:56.898Z,30.51
2019-04-20T08:20:16.142Z,30.36
2019-04-20T08:22:47.930Z,29.20
2019-04-20T08:25:12.579Z,29.27
2019-04-20T08:27:23.811Z,28.36
2019-04-20T08:30:03.477Z,27.32
2019-04-20T08:32:37.754Z,28.45
2019-04-20T08:35:14.314Z,28.30
2019-04-20T08:37:32.092Z,28.63
2019-04-20T08:40:06.823Z,28.49
2019-04-20T08:42:39.955Z,28.54
2019-04-20T08:45:08.386Z,28.48
2019-04-20T08:47:39.547Z,28.29
2019-04-20T08:50:03.418Z,27.15
2019-04-20T08:52:47.112Z,27.75
2019-04-20T08:54:56.965Z,26.28
2019-04-20T08:57:03.722Z,26.70
2019-04-20T08:59:33.447Z,24.44
2019-04-20T09:02:05.137Z,24.93
2019-04-20T09:04:38.599Z,23.56
2019-04-20T09:07:06.474Z,24.80
2019-04-20T09:09:52.727Z,24.88
2019-04-20T09:14:25.591Z,24.85
2019-04-20T09:16:59.754Z,24.38
2019-04-20T09:19:32.045Z,23.46
2019-04-20T09:21:54.916Z,23.13
2019-04-20T09:24:36.853Z,22.99
2019-04-20T09:27:04.607Z,23.36
2019-04-20T09:29:31.930Z,22.75
2019-04-20T09:32:00.319Z,20.81
2019-04-20T09:34:29.237Z,21.94
2019-04-20T09:36:49.612Z,21.80
2019-04-20T09:39:15.002Z,20.73
2019-04-20T09:41:58.126Z,19.77
2019-04-20T09:44:04.678Z,19.85
2019-04-20T09:46:37.846Z,20.69
2019-04-20T09:49:12.206Z,20.24
2019-04-20T09:51:43.614Z,20.67
2019-04-20T09:54:12.470Z,19.69
2019-04-20T09:56:41.948Z,20.96
2019-04-20T09:59:12.342Z,21.00
2019-04-20T10:01:31.144Z,20.87
2019-04-20T10:03:50.313Z,20.78
2019-04-20T10:06:17.998Z,19.87
2019-04-20T10:08:50.759Z,20.19
2019-04-20T10:11:13.926Z,19.71
2019-04-20T10:13:40.552Z,18.68
2019-04-20T10:16:08.017Z,17.58
2019-04-20T10:18:41.426Z,19.00
2019-04-20T10:21:03.071Z,18.75
2019-04-20T10:23:30.290Z,18.47
2019-04-20T10:25:58.454Z,17.29
2019-04-20T10:28:25.602Z,18.25
2019-04-20T10:30:52.639Z,17.52
2019-04-20T10:33:19.591Z,17.71
2019-04-20T10:35:47.613Z,17.62
2019-04-20T10:38:15.641Z,17.37
2019-04-20T10:40:52.976Z,17.08
2019-04-20T10:43:12.020Z,16.73
2019-04-20T10:45:39.200Z,16.04
2019-04-20T10:48:05.893Z,16.10
2019-04-20T10:50:32.508Z,15.49
2019-04-20T10:52:59.628Z,15.89
2019-04-20T10:55:27.236Z,15.09
2019-04-20T10:57:53.937Z,15.38
2019-04-20T11:00:21.631Z,14.55
2019-04-20T11:02:50.489Z,14.74
2019-04-20T11:05:16.980Z,14.43
2019-04-20T11:07:44.322Z,15.27
2019-04-20T11:10:15.750Z,14.97
2019-04-20T11:12:40.120Z,15.37
2019-04-20T11:15:08.275Z,15.38
2019-04-20T11:17:35.395Z,15.68
2019-04-20T11:20:03.275Z,15.78
2019-04-20T11:22:30.527Z,15.54
2019-04-20T11:24:58.472Z,15.79
2019-04-20T11:27:25.827Z,15.76
2019-04-20T11:29:52.454Z,15.95
2019-04-20T11:32:20.203Z,15.22
2019-04-20T11:34:47.167Z,16.10
2019-04-20T11:37:15.145Z,15.60
2019-04-20T11:39:43.072Z,15.76
2019-04-20T11:42:10.052Z,16.03
2019-04-20T11:44:38.113Z,16.43
2019-04-20T11:47:06.314Z,15.95
2019-04-20T11:49:33.359Z,16.69
2019-04-20T11:52:01.404Z,16.68
2019-04-20T11:54:28.345Z,16.32
2019-04-20T11:56:55.492Z,16.45
2019-04-20T11:59:23.149Z,15.51
2019-04-20T12:01:56.539Z,15.77
2019-04-20T12:04:30.688Z,15.82
2019-04-20T12:06:46.666Z,16.46
2019-04-20T12:09:13.303Z,16.23
2019-04-20T12:11:53.496Z,15.42
2019-04-20T12:14:08.209Z,16.33
2019-04-20T12:16:35.259Z,16.26
2019-04-20T12:19:02.256Z,16.77
2019-04-20T12:21:29.064Z,16.90
2019-04-20T12:23:56.176Z,16.31
2019-04-20T12:26:23.061Z,16.18
2019-04-20T12:28:49.777Z,16.72
2019-04-20T12:31:20.426Z,17.07
2019-04-20T12:33:44.718Z,17.12
2019-04-20T12:36:12.250Z,16.93
2019-04-20T12:38:39.181Z,16.86
2019-04-20T12:41:07.738Z,17.00
2019-04-20T12:43:34.181Z,16.67
2019-04-20T12:46:02.088Z,16.57
2019-04-20T12:48:29.343Z,16.79
2019-04-20T12:50:57.261Z,16.58
2019-04-20T12:53:24.508Z,16.18
2019-04-20T12:55:52.603Z,16.18
2019-04-20T12:58:20.714Z,15.75
2019-04-20T13:00:49.835Z,15.74
2019-04-20T13:03:17.173Z,15.77
2019-04-20T13:05:43.895Z,15.42
2019-04-20T13:08:13.740Z,13.17
2019-04-20T13:10:40.116Z,14.20
2019-04-20T13:13:08.086Z,14.74
2019-04-20T13:15:36.315Z,14.74
2019-04-20T13:18:03.292Z,14.21
2019-04-20T13:20:30.117Z,15.02
2019-04-20T13:22:57.165Z,15.25
2019-04-20T13:25:25.081Z,15.65
2019-04-20T13:27:52.749Z,14.62
2019-04-20T13:30:19.725Z,15.40
2019-04-20T13:32:47.709Z,15.25
2019-04-20T13:35:14.428Z,15.17
2019-04-20T13:37:42.320Z,15.24
2019-04-20T13:40:09.390Z,14.35
2019-04-20T13:42:36.467Z,15.36
2019-04-20T13:45:04.303Z,15.51
2019-04-20T13:47:32.737Z,15.61
2019-04-20T13:49:59.840Z,15.60
2019-04-20T13:52:28.560Z,15.55
2019-04-20T13:54:55.916Z,15.14
2019-04-20T13:57:23.686Z,15.33
2019-04-20T13:59:50.506Z,15.35
2019-04-20T14:02:20.509Z,15.24
2019-04-20T14:04:48.588Z,15.50
2019-04-20T14:07:16.782Z,14.92
2019-04-20T14:09:43.699Z,14.59
2019-04-20T14:12:16.222Z,14.33
2019-04-20T14:14:39.261Z,14.63
2019-04-20T14:17:07.413Z,14.65
2019-04-20T14:19:34.809Z,14.56
2019-04-20T14:22:02.120Z,14.89
2019-04-20T14:24:28.979Z,15.12
2019-04-20T14:26:56.907Z,13.10
2019-04-20T14:29:25.081Z,14.41
2019-04-20T14:31:52.088Z,14.38
2019-04-20T14:34:18.756Z,14.24
2019-04-20T14:36:46.675Z,13.99
2019-04-20T14:39:14.107Z,13.68
2019-04-20T14:41:40.761Z,14.18
2019-04-20T14:44:07.931Z,13.67
2019-04-20T14:46:35.768Z,13.58
2019-04-20T14:49:02.902Z,13.68
2019-04-20T14:51:29.851Z,12.62
2019-04-20T14:53:56.465Z,10.91
2019-04-20T14:56:23.427Z,10.32
2019-04-20T14:58:51.364Z,7.87
2019-04-20T15:01:18.577Z,7.95
2019-04-20T15:03:45.498Z,7.62
2019-04-20T15:06:13.606Z,6.53
2019-04-20T15:08:40.770Z,7.84
2019-04-20T15:11:07.498Z,7.46
2019-04-20T15:13:34.930Z,6.81
2019-04-20T15:16:02.434Z,7.92
2019-04-20T15:18:29.395Z,6.67
2019-04-20T15:20:57.358Z,6.58
2019-04-20T15:23:24.008Z,7.32
2019-04-20T15:25:50.672Z,6.94
2019-04-20T15:28:18.555Z,7.22
2019-04-20T15:30:45.329Z,7.31
2019-04-20T15:33:12.705Z,7.82
2019-04-20T15:35:40.070Z,7.94
2019-04-20T15:38:07.101Z,8.37
2019-04-20T15:40:34.971Z,9.15
2019-04-20T15:43:11.823Z,8.94
2019-04-20T15:45:31.394Z,9.16
2019-04-20T15:47:59.400Z,9.32
2019-04-20T15:50:27.584Z,9.27
2019-04-20T15:52:56.568Z,10.13
2019-04-20T15:55:27.496Z,10.32
2019-04-20T15:57:50.887Z,10.61
2019-04-20T16:00:18.424Z,11.22
2019-04-20T16:02:45.401Z,11.49
2019-04-20T16:05:12.407Z,11.66
2019-04-20T16:07:46.582Z,11.71
2019-04-20T16:10:07.486Z,12.13
2019-04-20T16:12:35.148Z,12.30
2019-04-20T16:15:02.087Z,12.71
2019-04-20T16:17:33.660Z,12.95
2019-04-20T16:20:03.892Z,13.20
2019-04-20T16:22:25.835Z,13.50
2019-04-20T16:24:53.735Z,13.68
2019-04-20T16:27:20.453Z,13.92
2019-04-20T16:29:47.380Z,14.00
2019-04-20T16:32:14.424Z,14.29
2019-04-20T16:34:42.495Z,14.55
2019-04-20T16:37:10.575Z,14.66
2019-04-20T16:39:38.567Z,14.71
2019-04-20T16:42:06.448Z,14.97
2019-04-20T16:44:35.594Z,15.12
2019-04-20T16:47:02.254Z,15.29
2019-04-20T16:49:28.891Z,15.37
2019-04-20T16:51:56.878Z,15.49
2019-04-20T16:54:23.840Z,15.69
2019-04-20T16:56:50.784Z,15.80
2019-04-20T16:59:19.186Z,16.01
2019-04-20T17:01:46.658Z,16.13
2019-04-20T17:04:18.596Z,16.18
2019-04-20T17:06:42.358Z,16.42
2019-04-20T17:09:10.073Z,16.56
2019-04-20T17:11:37.592Z,16.79
2019-04-20T17:14:04.162Z,16.81
2019-04-20T17:16:31.653Z,17.01
2019-04-20T17:18:59.637Z,17.06
2019-04-20T17:21:28.872Z,17.31
2019-04-20T17:23:55.463Z,17.48
2019-04-20T17:26:23.111Z,17.72
2019-04-20T17:28:52.403Z,17.66
2019-04-20T17:31:19.664Z,17.77
2019-04-20T17:33:58.432Z,17.75
2019-04-20T17:36:19.792Z,17.82
2019-04-20T17:38:48.479Z,17.82
2019-04-20T17:41:32.400Z,17.96
2019-04-20T17:44:01.497Z,18.01
2019-04-20T17:46:23.689Z,18.06
2019-04-20T17:48:51.367Z,18.24
2019-04-20T17:51:28.684Z,18.22
2019-04-20T17:53:41.814Z,18.40
2019-04-20T17:56:03.529Z,18.48
2019-04-20T17:58:34.424Z,18.55
2019-04-20T18:00:59.903Z,18.64
2019-04-20T18:03:58.951Z,18.65
2019-04-20T18:06:14.542Z,18.72
2019-04-20T18:08:41.397Z,18.82
2019-04-20T18:11:01.853Z,18.88
2019-04-20T18:13:24.000Z,18.94
2019-04-20T18:16:04.588Z,19.00
2019-04-20T18:18:33.661Z,19.16
2019-04-20T18:20:45.056Z,19.18
2019-04-20T18:23:12.926Z,19.21
2019-04-20T18:26:07.842Z,19.28
2019-04-20T18:28:20.925Z,19.40
2019-04-20T18:30:44.810Z,19.45
2019-04-20T18:33:05.403Z,19.54
2019-04-20T18:35:34.775Z,19.60
2019-04-20T18:38:04.644Z,19.67
2019-04-20T18:40:37.231Z,19.84
2019-04-20T18:43:05.248Z,20.12
2019-04-20T18:45:41.049Z,19.99
2019-04-20T18:48:11.471Z,20.02
2019-04-20T18:50:27.386Z,20.15
2019-04-20T18:52:51.651Z,20.20
2019-04-20T18:55:27.473Z,20.29
2019-04-20T18:57:47.045Z,20.32
2019-04-20T19:00:20.094Z,20.46
2019-04-20T19:02:46.905Z,20.54
2019-04-20T19:05:11.423Z,20.60
2019-04-20T19:07:43.648Z,20.69
2019-04-20T19:10:14.535Z,20.87
2019-04-20T19:12:43.991Z,20.93
2019-04-20T19:15:28.258Z,20.92
2019-04-20T19:20:20.587Z,21.19
2019-04-20T19:22:48.266Z,21.26
2019-04-20T19:25:18.396Z,21.31
2019-04-20T19:27:48.893Z,21.43
2019-04-20T19:30:26.666Z,21.58
2019-04-20T19:33:01.036Z,21.64
2019-04-20T19:35:24.344Z,21.67
2019-04-20T19:37:51.648Z,21.79
2019-04-20T19:40:15.939Z,21.87
2019-04-20T19:42:45.509Z,21.98
2019-04-20T19:45:30.131Z,22.08
2019-04-20T19:47:48.082Z,22.07
2019-04-20T19:50:25.166Z,22.04
2019-04-20T19:52:53.164Z,22.19
2019-04-20T19:55:14.735Z,22.31
2019-04-20T19:57:42.862Z,22.45
2019-04-20T19:59:55.815Z,22.55
2019-04-20T20:02:19.829Z,22.55
2019-04-20T20:04:50.802Z,22.78
2019-04-20T20:07:21.898Z,22.73
2019-04-20T20:09:49.749Z,22.76
2019-04-20T20:12:14.741Z,23.05
2019-04-20T20:14:45.669Z,23.05
2019-04-20T20:17:27.367Z,23.27
2019-04-20T20:20:03.988Z,23.50
2019-04-20T20:22:17.207Z,23.45
2019-04-20T20:24:33.372Z,23.59
2019-04-20T20:27:06.129Z,23.76
2019-04-20T20:29:37.629Z,23.94
2019-04-20T20:32:13.255Z,23.95
2019-04-20T20:34:32.406Z,24.90
2019-04-20T20:37:00.034Z,24.89
2019-04-20T20:39:27.731Z,25.13
2019-04-20T20:42:04.737Z,25.07
2019-04-20T20:44:27.625Z,25.26
2019-04-20T20:47:10.616Z,25.13
2019-04-20T20:49:33.189Z,25.33
2019-04-20T20:52:02.198Z,26.16
2019-04-20T20:54:28.376Z,25.94
2019-04-20T20:56:49.972Z,25.97
2019-04-20T20:59:13.965Z,25.74
2019-04-20T21:01:46.453Z,26.11
2019-04-20T21:04:05.086Z,26.49
2019-04-20T21:06:32.830Z,26.27
2019-04-20T21:09:01.338Z,26.12
2019-04-20T21:11:31.425Z,26.16
2019-04-20T21:13:57.463Z,26.43
2019-04-20T21:16:30.892Z,26.25
2019-04-20T21:19:10.626Z,26.26
2019-04-20T21:21:38.829Z,26.37
2019-04-20T21:23:58.185Z,26.43
2019-04-20T21:26:25.841Z,26.68
2019-04-20T21:28:45.841Z,26.51
2019-04-20T21:31:16.846Z,26.45
2019-04-20T21:33:41.014Z,26.45
2019-04-20T21:36:09.106Z,26.59
2019-04-20T21:38:40.742Z,26.72
2019-04-20T21:41:09.342Z,26.74
2019-04-20T21:43:37.262Z,27.10
2019-04-20T21:46:04.938Z,26.80
2019-04-20T21:48:43.945Z,27.01
2019-04-20T21:51:13.421Z,27.71
2019-04-20T21:53:31.359Z,27.73
2019-04-20T21:55:55.189Z,28.13
2019-04-20T21:58:29.623Z,28.04
2019-04-20T22:01:02.139Z,27.89
2019-04-20T22:03:18.647Z,27.93
2019-04-20T22:05:46.474Z,27.93
2019-04-20T22:08:16.058Z,28.24
2019-04-20T22:10:42.901Z,28.76
2019-04-20T22:13:09.965Z,28.49
2019-04-20T22:15:46.637Z,28.33
2019-04-20T22:18:09.419Z,28.38
2019-04-20T22:20:48.057Z,28.42
2019-04-20T22:23:13.795Z,29.02
2019-04-20T22:25:50.543Z,28.79
2019-04-20T22:28:00.613Z,28.83
2019-04-20T22:30:28.130Z,28.78
2019-04-20T22:32:55.271Z,28.89
2019-04-20T22:35:24.410Z,28.80
2019-04-20T22:37:52.036Z,28.74
2019-04-20T22:40:25.090Z,28.78
2019-04-20T22:42:51.665Z,28.65
2019-04-20T22:45:17.272Z,28.92
2019-04-20T22:47:43.998Z,28.87
2019-04-20T22:50:29.028Z,28.81
2019-04-20T22:52:50.207Z,28.79
2019-04-20T22:55:30.052Z,29.20
2019-04-20T22:57:48.726Z,29.07
2019-04-20T23:00:12.294Z,29.11
2019-04-20T23:02:33.255Z,29.11
2019-04-20T23:05:00.689Z,29.11
2019-04-20T23:07:28.483Z,29.09
2019-04-20T23:09:59.426Z,29.47
2019-04-20T23:12:26.308Z,29.67
2019-04-20T23:14:52.309Z,29.91
2019-04-20T23:17:26.942Z,30.33
2019-04-20T23:19:52.651Z,31.04
2019-04-20T23:22:17.450Z,30.61
2019-04-20T23:24:44.866Z,30.41
2019-04-20T23:27:18.150Z,30.74
2019-04-20T23:29:41.645Z,30.91
2019-04-20T23:32:11.915Z,30.96
2019-04-20T23:34:38.935Z,31.43
2019-04-20T23:37:08.751Z,31.12
2019-04-20T23:39:39.740Z,31.08
2019-04-20T23:42:06.676Z,32.00
2019-04-20T23:44:31.420Z,31.22
2019-04-20T23:47:04.531Z,31.21
2019-04-20T23:49:31.811Z,30.94
2019-04-20T23:52:16.663Z,30.84
2019-04-20T23:54:27.413Z,30.89
2019-04-20T23:56:51.506Z,31.07
2019-04-20T23:59:19.199Z,31.95
